sensor_id;sensor_type;location;lat;lon;timestamp;pressure;altitude;pressure_sealevel;temperature;humidity
82353;BME280;71954;47.430;18.920;2024-03-22T00:00:55;100150.88;;;11.30;57.20
82353;BME280;71954;47.430;18.920;2024-03-22T00:03:21;100151.59;;;11.32;56.77
82353;BME280;71954;47.430;18.920;2024-03-22T00:05:47;100141.66;;;11.34;56.70
82353;BME280;71954;47.430;18.920;2024-03-22T00:08:13;100140.59;;;11.36;57.23
82353;BME280;71954;47.430;18.920;2024-03-22T00:10:38;100148.28;;;11.39;57.38
82353;BME280;71954;47.430;18.920;2024-03-22T00:13:04;100145.41;;;11.42;56.47
82353;BME280;71954;47.430;18.920;2024-03-22T00:15:30;100133.91;;;11.42;56.45
82353;BME280;71954;47.430;18.920;2024-03-22T00:17:55;100137.31;;;11.44;57.55
82353;BME280;71954;47.430;18.920;2024-03-22T00:20:21;100135.84;;;11.40;57.68
82353;BME280;71954;47.430;18.920;2024-03-22T00:22:46;100136.69;;;11.40;57.69
82353;BME280;71954;47.430;18.920;2024-03-22T00:25:12;100140.66;;;11.46;57.06
82353;BME280;71954;47.430;18.920;2024-03-22T00:27:37;100132.56;;;11.48;57.43
82353;BME280;71954;47.430;18.920;2024-03-22T00:30:03;100142.13;;;11.50;57.48
82353;BME280;71954;47.430;18.920;2024-03-22T00:32:29;100139.94;;;11.55;57.45
82353;BME280;71954;47.430;18.920;2024-03-22T00:34:55;100129.31;;;11.55;56.66
82353;BME280;71954;47.430;18.920;2024-03-22T00:37:20;100130.72;;;11.59;57.26
82353;BME280;71954;47.430;18.920;2024-03-22T00:39:46;100128.06;;;11.59;57.41
82353;BME280;71954;47.430;18.920;2024-03-22T00:42:12;100126.03;;;11.63;57.30
82353;BME280;71954;47.430;18.920;2024-03-22T00:44:37;100130.22;;;11.65;58.20
82353;BME280;71954;47.430;18.920;2024-03-22T00:47:03;100130.09;;;11.67;57.58
82353;BME280;71954;47.430;18.920;2024-03-22T00:49:29;100124.66;;;11.68;57.87
82353;BME280;71954;47.430;18.920;2024-03-22T00:51:55;100125.16;;;11.73;57.95
82353;BME280;71954;47.430;18.920;2024-03-22T00:54:22;100122.09;;;11.78;57.74
82353;BME280;71954;47.430;18.920;2024-03-22T00:56:47;100114.97;;;11.78;57.66
82353;BME280;71954;47.430;18.920;2024-03-22T00:59:13;100115.56;;;11.82;57.36
82353;BME280;71954;47.430;18.920;2024-03-22T01:01:39;100110.22;;;11.82;57.97
82353;BME280;71954;47.430;18.920;2024-03-22T01:04:04;100118.22;;;11.82;57.81
82353;BME280;71954;47.430;18.920;2024-03-22T01:06:30;100120.75;;;11.83;58.10
82353;BME280;71954;47.430;18.920;2024-03-22T01:08:55;100116.66;;;11.79;58.24
82353;BME280;71954;47.430;18.920;2024-03-22T01:11:21;100118.03;;;11.74;57.86
82353;BME280;71954;47.430;18.920;2024-03-22T01:13:47;100118.72;;;11.76;58.18
82353;BME280;71954;47.430;18.920;2024-03-22T01:16:12;100125.63;;;11.78;58.02
82353;BME280;71954;47.430;18.920;2024-03-22T01:18:38;100130.09;;;11.78;57.77
82353;BME280;71954;47.430;18.920;2024-03-22T01:21:04;100133.47;;;11.80;58.03
82353;BME280;71954;47.430;18.920;2024-03-22T01:23:30;100129.84;;;11.81;57.81
82353;BME280;71954;47.430;18.920;2024-03-22T01:25:56;100129.25;;;11.77;57.92
82353;BME280;71954;47.430;18.920;2024-03-22T01:28:22;100125.34;;;11.81;57.68
82353;BME280;71954;47.430;18.920;2024-03-22T01:30:47;100122.44;;;11.85;57.62
82353;BME280;71954;47.430;18.920;2024-03-22T01:33:13;100123.03;;;11.88;57.35
82353;BME280;71954;47.430;18.920;2024-03-22T01:35:39;100125.09;;;11.85;57.56
82353;BME280;71954;47.430;18.920;2024-03-22T01:38:04;100117.53;;;11.80;57.42
82353;BME280;71954;47.430;18.920;2024-03-22T01:40:30;100115.22;;;11.75;57.43
82353;BME280;71954;47.430;18.920;2024-03-22T01:42:57;100113.75;;;11.71;57.99
82353;BME280;71954;47.430;18.920;2024-03-22T01:45:23;100115.13;;;11.66;58.11
82353;BME280;71954;47.430;18.920;2024-03-22T01:47:53;100116.53;;;11.70;58.45
82353;BME280;71954;47.430;18.920;2024-03-22T01:50:20;100117.38;;;11.70;58.71
82353;BME280;71954;47.430;18.920;2024-03-22T01:52:46;100113.56;;;11.63;59.08
82353;BME280;71954;47.430;18.920;2024-03-22T01:55:12;100104.47;;;11.66;58.59
82353;BME280;71954;47.430;18.920;2024-03-22T01:57:38;100104.47;;;11.66;58.96
82353;BME280;71954;47.430;18.920;2024-03-22T02:00:04;100098.78;;;11.70;58.16
82353;BME280;71954;47.430;18.920;2024-03-22T02:02:30;100103.63;;;11.76;58.67
82353;BME280;71954;47.430;18.920;2024-03-22T02:04:57;100099.03;;;11.78;58.34
82353;BME280;71954;47.430;18.920;2024-03-22T02:07:22;100105.31;;;11.77;58.20
82353;BME280;71954;47.430;18.920;2024-03-22T02:09:49;100111.34;;;11.79;58.15
82353;BME280;71954;47.430;18.920;2024-03-22T02:12:14;100114.72;;;11.81;58.46
82353;BME280;71954;47.430;18.920;2024-03-22T02:14:41;100108.56;;;11.81;58.91
82353;BME280;71954;47.430;18.920;2024-03-22T02:17:06;100104.22;;;11.80;58.83
82353;BME280;71954;47.430;18.920;2024-03-22T02:19:32;100103.09;;;11.82;58.27
82353;BME280;71954;47.430;18.920;2024-03-22T02:21:58;100104.78;;;11.83;57.93
82353;BME280;71954;47.430;18.920;2024-03-22T02:24:23;100110.13;;;11.83;58.17
82353;BME280;71954;47.430;18.920;2024-03-22T02:26:49;100114.47;;;11.85;58.15
82353;BME280;71954;47.430;18.920;2024-03-22T02:29:14;100111.94;;;11.83;57.32
82353;BME280;71954;47.430;18.920;2024-03-22T02:31:40;100111.94;;;11.83;57.37
82353;BME280;71954;47.430;18.920;2024-03-22T02:34:06;100115.88;;;11.89;57.11
82353;BME280;71954;47.430;18.920;2024-03-22T02:36:32;100114.69;;;11.93;57.53
82353;BME280;71954;47.430;18.920;2024-03-22T02:38:57;100112.72;;;11.95;57.03
82353;BME280;71954;47.430;18.920;2024-03-22T02:41:23;100102.13;;;11.83;56.80
82353;BME280;71954;47.430;18.920;2024-03-22T02:43:48;100111.09;;;11.82;57.58
82353;BME280;71954;47.430;18.920;2024-03-22T02:46:14;100105.75;;;11.82;57.86
82353;BME280;71954;47.430;18.920;2024-03-22T02:48:40;100104.22;;;11.80;57.65
82353;BME280;71954;47.430;18.920;2024-03-22T02:51:05;100093.44;;;11.81;57.83
82353;BME280;71954;47.430;18.920;2024-03-22T02:53:31;100106.72;;;11.81;57.43
82353;BME280;71954;47.430;18.920;2024-03-22T02:56:00;100102.53;;;11.79;57.29
82353;BME280;71954;47.430;18.920;2024-03-22T02:58:25;100099.03;;;11.78;57.51
82353;BME280;71954;47.430;18.920;2024-03-22T03:00:51;100101.56;;;11.80;57.53
82353;BME280;71954;47.430;18.920;2024-03-22T03:03:17;100098.06;;;11.79;57.55
82353;BME280;71954;47.430;18.920;2024-03-22T03:05:42;100097.94;;;11.81;58.25
82353;BME280;71954;47.430;18.920;2024-03-22T03:08:09;100088.97;;;11.82;57.85
82353;BME280;71954;47.430;18.920;2024-03-22T03:10:35;100084.13;;;11.87;57.56
82353;BME280;71954;47.430;18.920;2024-03-22T03:13:01;100091.94;;;11.89;58.03
82353;BME280;71954;47.430;18.920;2024-03-22T03:15:26;100085.09;;;11.86;58.14
82353;BME280;71954;47.430;18.920;2024-03-22T03:17:52;100090.41;;;11.86;58.21
82353;BME280;71954;47.430;18.920;2024-03-22T03:20:18;100088.59;;;11.87;58.05
82353;BME280;71954;47.430;18.920;2024-03-22T03:22:43;100085.34;;;11.83;58.27
82353;BME280;71954;47.430;18.920;2024-03-22T03:25:09;100084.50;;;11.82;58.45
82353;BME280;71954;47.430;18.920;2024-03-22T03:27:35;100090.94;;;11.80;58.65
82353;BME280;71954;47.430;18.920;2024-03-22T03:30:01;100086.56;;;11.79;58.80
82353;BME280;71954;47.430;18.920;2024-03-22T03:32:27;100089.22;;;11.79;58.90
82353;BME280;71954;47.430;18.920;2024-03-22T03:34:53;100087.81;;;11.75;58.88
82353;BME280;71954;47.430;18.920;2024-03-22T03:37:18;100095.28;;;11.70;59.01
82353;BME280;71954;47.430;18.920;2024-03-22T03:39:44;100091.06;;;11.67;59.26
82353;BME280;71954;47.430;18.920;2024-03-22T03:42:10;100096.38;;;11.67;59.62
82353;BME280;71954;47.430;18.920;2024-03-22T03:44:36;100090.78;;;11.70;60.00
82353;BME280;71954;47.430;18.920;2024-03-22T03:47:02;100089.00;;;11.71;59.88
82353;BME280;71954;47.430;18.920;2024-03-22T03:49:28;100090.78;;;11.70;60.04
82353;BME280;71954;47.430;18.920;2024-03-22T03:51:53;100088.28;;;11.69;59.78
82353;BME280;71954;47.430;18.920;2024-03-22T03:54:19;100094.69;;;11.66;59.92
82353;BME280;71954;47.430;18.920;2024-03-22T03:56:45;100102.94;;;11.63;60.21
82353;BME280;71954;47.430;18.920;2024-03-22T03:59:10;100108.50;;;11.60;60.59
82353;BME280;71954;47.430;18.920;2024-03-22T04:01:36;100108.75;;;11.57;59.92
82353;BME280;71954;47.430;18.920;2024-03-22T04:04:03;100106.59;;;11.51;60.67
82353;BME280;71954;47.430;18.920;2024-03-22T04:06:29;100109.50;;;11.48;60.58
82353;BME280;71954;47.430;18.920;2024-03-22T04:08:54;100109.03;;;11.43;61.15
82353;BME280;71954;47.430;18.920;2024-03-22T04:11:20;100107.63;;;11.39;61.04
82353;BME280;71954;47.430;18.920;2024-03-22T04:13:46;100109.44;;;11.38;61.31
82353;BME280;71954;47.430;18.920;2024-03-22T04:16:12;100102.53;;;11.36;61.44
82353;BME280;71954;47.430;18.920;2024-03-22T04:18:38;100107.84;;;11.36;61.61
82353;BME280;71954;47.430;18.920;2024-03-22T04:21:04;100109.66;;;11.35;61.76
82353;BME280;71954;47.430;18.920;2024-03-22T04:23:30;100109.19;;;11.30;62.27
82353;BME280;71954;47.430;18.920;2024-03-22T04:25:58;100117.53;;;11.26;62.39
82353;BME280;71954;47.430;18.920;2024-03-22T04:28:27;100112.47;;;11.23;62.74
82353;BME280;71954;47.430;18.920;2024-03-22T04:33:24;100115.38;;;11.20;63.21
82353;BME280;71954;47.430;18.920;2024-03-22T04:35:50;100116.47;;;11.17;63.55
82353;BME280;71954;47.430;18.920;2024-03-22T04:38:15;100119.13;;;11.17;63.76
82353;BME280;71954;47.430;18.920;2024-03-22T04:40:41;100122.63;;;11.18;64.18
82353;BME280;71954;47.430;18.920;2024-03-22T04:43:07;100121.66;;;11.19;64.28
82353;BME280;71954;47.430;18.920;2024-03-22T04:45:33;100126.13;;;11.18;64.37
82353;BME280;71954;47.430;18.920;2024-03-22T04:48:01;100123.84;;;11.14;64.39
82353;BME280;71954;47.430;18.920;2024-03-22T04:50:27;100123.59;;;11.17;64.66
82353;BME280;71954;47.430;18.920;2024-03-22T04:52:53;100128.06;;;11.16;64.68
82353;BME280;71954;47.430;18.920;2024-03-22T04:55:19;100124.31;;;11.19;64.57
82353;BME280;71954;47.430;18.920;2024-03-22T04:57:44;100122.50;;;11.19;64.78
82353;BME280;71954;47.430;18.920;2024-03-22T05:00:10;100122.25;;;11.22;64.57
82353;BME280;71954;47.430;18.920;2024-03-22T05:02:36;100123.09;;;11.23;64.74
82353;BME280;71954;47.430;18.920;2024-03-22T05:05:02;100119.25;;;11.27;64.53
82353;BME280;71954;47.430;18.920;2024-03-22T05:07:27;100117.41;;;11.27;64.44
82353;BME280;71954;47.430;18.920;2024-03-22T05:09:53;100124.28;;;11.30;64.60
82353;BME280;71954;47.430;18.920;2024-03-22T05:12:18;100121.41;;;11.33;64.67
82353;BME280;71954;47.430;18.920;2024-03-22T05:14:44;100121.88;;;11.38;64.43
82353;BME280;71954;47.430;18.920;2024-03-22T05:17:09;100120.16;;;11.37;64.54
82353;BME280;71954;47.430;18.920;2024-03-22T05:19:35;100121.59;;;11.41;64.37
82353;BME280;71954;47.430;18.920;2024-03-22T05:22:01;100118.81;;;11.42;64.20
82353;BME280;71954;47.430;18.920;2024-03-22T05:24:27;100123.88;;;11.46;64.25
82353;BME280;71954;47.430;18.920;2024-03-22T05:26:53;100122.22;;;11.45;64.22
82353;BME280;71954;47.430;18.920;2024-03-22T05:29:18;100126.69;;;11.44;64.35
82353;BME280;71954;47.430;18.920;2024-03-22T05:31:48;100122.31;;;11.43;64.61
82353;BME280;71954;47.430;18.920;2024-03-22T05:34:17;100133.91;;;11.42;64.70
82353;BME280;71954;47.430;18.920;2024-03-22T05:36:42;100122.44;;;11.41;65.08
82353;BME280;71954;47.430;18.920;2024-03-22T05:39:08;100121.94;;;11.48;64.89
82353;BME280;71954;47.430;18.920;2024-03-22T05:41:36;100116.41;;;11.51;65.01
82353;BME280;71954;47.430;18.920;2024-03-22T05:44:02;100127.88;;;11.51;65.17
82353;BME280;71954;47.430;18.920;2024-03-22T05:46:29;100125.91;;;11.53;65.35
82353;BME280;71954;47.430;18.920;2024-03-22T05:48:56;100120.38;;;11.56;65.15
82353;BME280;71954;47.430;18.920;2024-03-22T05:51:21;100117.31;;;11.61;65.06
82353;BME280;71954;47.430;18.920;2024-03-22T05:53:47;100118.88;;;11.63;65.26
82353;BME280;71954;47.430;18.920;2024-03-22T05:56:12;100119.59;;;11.65;65.23
82353;BME280;71954;47.430;18.920;2024-03-22T05:58:38;100122.00;;;11.68;65.22
82353;BME280;71954;47.430;18.920;2024-03-22T06:01:04;100116.69;;;11.68;65.25
82353;BME280;71954;47.430;18.920;2024-03-22T06:03:31;100115.47;;;11.72;65.24
82353;BME280;71954;47.430;18.920;2024-03-22T06:05:59;100116.91;;;11.76;65.18
82353;BME280;71954;47.430;18.920;2024-03-22T06:08:26;100107.25;;;11.75;65.50
82353;BME280;71954;47.430;18.920;2024-03-22T06:10:55;100114.13;;;11.78;65.45
82353;BME280;71954;47.430;18.920;2024-03-22T06:13:21;100115.56;;;11.82;65.26
82353;BME280;71954;47.430;18.920;2024-03-22T06:15:50;100114.47;;;11.85;65.38
82353;BME280;71954;47.430;18.920;2024-03-22T06:18:16;100126.41;;;11.90;65.01
82353;BME280;71954;47.430;18.920;2024-03-22T06:20:42;100125.91;;;11.96;65.10
82353;BME280;71954;47.430;18.920;2024-03-22T06:23:09;100128.03;;;12.02;65.06
82353;BME280;71954;47.430;18.920;2024-03-22T06:25:35;100126.56;;;12.09;64.70
82353;BME280;71954;47.430;18.920;2024-03-22T06:28:01;100120.50;;;12.07;64.88
82353;BME280;71954;47.430;18.920;2024-03-22T06:30:27;100125.59;;;12.10;64.84
82353;BME280;71954;47.430;18.920;2024-03-22T06:32:53;100118.91;;;12.16;64.74
82353;BME280;71954;47.430;18.920;2024-03-22T06:35:20;100119.59;;;12.18;64.66
82353;BME280;71954;47.430;18.920;2024-03-22T06:37:46;100121.50;;;12.27;64.40
82353;BME280;71954;47.430;18.920;2024-03-22T06:40:12;100123.34;;;12.36;64.15
82353;BME280;71954;47.430;18.920;2024-03-22T06:42:38;100127.19;;;12.43;64.11
82353;BME280;71954;47.430;18.920;2024-03-22T06:45:03;100122.31;;;12.48;63.78
82353;BME280;71954;47.430;18.920;2024-03-22T06:47:29;100121.22;;;12.51;63.35
82353;BME280;71954;47.430;18.920;2024-03-22T06:49:55;100121.66;;;12.56;63.51
82353;BME280;71954;47.430;18.920;2024-03-22T06:52:20;100120.16;;;12.63;63.20
82353;BME280;71954;47.430;18.920;2024-03-22T06:54:46;100126.75;;;12.69;63.16
82353;BME280;71954;47.430;18.920;2024-03-22T06:57:12;100129.63;;;12.77;63.14
82353;BME280;71954;47.430;18.920;2024-03-22T06:59:38;100134.22;;;12.75;63.42
82353;BME280;71954;47.430;18.920;2024-03-22T07:02:04;100134.34;;;12.73;63.32
82353;BME280;71954;47.430;18.920;2024-03-22T07:04:29;100133.50;;;12.73;63.41
82353;BME280;71954;47.430;18.920;2024-03-22T07:06:55;100141.66;;;12.71;63.40
82353;BME280;71954;47.430;18.920;2024-03-22T07:09:21;100139.09;;;12.70;63.69
82353;BME280;71954;47.430;18.920;2024-03-22T07:11:46;100142.34;;;12.73;63.22
82353;BME280;71954;47.430;18.920;2024-03-22T07:14:12;100132.53;;;12.74;63.43
82353;BME280;71954;47.430;18.920;2024-03-22T07:16:38;100141.97;;;12.78;63.22
82353;BME280;71954;47.430;18.920;2024-03-22T07:19:03;100137.06;;;12.83;63.16
82353;BME280;71954;47.430;18.920;2024-03-22T07:21:29;100144.66;;;12.87;63.14
82353;BME280;71954;47.430;18.920;2024-03-22T07:23:56;100141.31;;;12.95;62.90
82353;BME280;71954;47.430;18.920;2024-03-22T07:26:22;100147.34;;;12.97;62.69
82353;BME280;71954;47.430;18.920;2024-03-22T07:28:47;100133.66;;;13.01;62.68
82353;BME280;71954;47.430;18.920;2024-03-22T07:31:13;100131.41;;;13.07;62.72
82353;BME280;71954;47.430;18.920;2024-03-22T07:33:39;100137.31;;;13.10;62.25
82353;BME280;71954;47.430;18.920;2024-03-22T07:36:06;100142.63;;;13.10;62.24
82353;BME280;71954;47.430;18.920;2024-03-22T07:38:32;100138.16;;;13.11;62.20
82353;BME280;71954;47.430;18.920;2024-03-22T07:40:57;100149.66;;;13.11;62.14
82353;BME280;71954;47.430;18.920;2024-03-22T07:43:23;100152.31;;;13.11;61.99
82353;BME280;71954;47.430;18.920;2024-03-22T07:45:49;100156.25;;;13.07;62.15
82353;BME280;71954;47.430;18.920;2024-03-22T07:48:14;100145.72;;;13.05;62.31
82353;BME280;71954;47.430;18.920;2024-03-22T07:50:40;100154.56;;;13.06;62.41
82353;BME280;71954;47.430;18.920;2024-03-22T07:53:05;100155.09;;;13.00;62.65
82353;BME280;71954;47.430;18.920;2024-03-22T07:55:31;100152.13;;;13.03;62.43
82353;BME280;71954;47.430;18.920;2024-03-22T07:57:56;100160.13;;;13.03;62.60
82353;BME280;71954;47.430;18.920;2024-03-22T08:00:23;100159.16;;;13.04;62.61
82353;BME280;71954;47.430;18.920;2024-03-22T08:02:53;100165.91;;;13.08;62.43
82353;BME280;71954;47.430;18.920;2024-03-22T08:05:20;100161.28;;;13.10;62.39
82353;BME280;71954;47.430;18.920;2024-03-22T08:07:45;100160.06;;;13.14;62.45
82353;BME280;71954;47.430;18.920;2024-03-22T08:10:11;100163.72;;;13.13;62.22
82353;BME280;71954;47.430;18.920;2024-03-22T08:12:37;100170.97;;;13.11;62.29
82353;BME280;71954;47.430;18.920;2024-03-22T08:15:03;100169.75;;;13.15;62.81
82353;BME280;71954;47.430;18.920;2024-03-22T08:17:29;100157.84;;;13.19;62.83
82353;BME280;71954;47.430;18.920;2024-03-22T08:19:54;100162.66;;;13.25;62.50
82353;BME280;71954;47.430;18.920;2024-03-22T08:22:20;100168.41;;;13.30;62.18
82353;BME280;71954;47.430;18.920;2024-03-22T08:24:46;100164.34;;;13.36;61.94
82353;BME280;71954;47.430;18.920;2024-03-22T08:27:11;100162.84;;;13.43;62.07
82353;BME280;71954;47.430;18.920;2024-03-22T08:29:37;100160.59;;;13.48;61.75
82353;BME280;71954;47.430;18.920;2024-03-22T08:32:04;100166.22;;;13.55;61.50
82353;BME280;71954;47.430;18.920;2024-03-22T08:34:30;100161.75;;;13.65;61.04
82353;BME280;71954;47.430;18.920;2024-03-22T08:36:58;100165.53;;;13.72;60.87
82353;BME280;71954;47.430;18.920;2024-03-22T08:39:24;100155.72;;;13.82;60.17
82353;BME280;71954;47.430;18.920;2024-03-22T08:41:51;100155.56;;;13.93;59.91
82353;BME280;71954;47.430;18.920;2024-03-22T08:44:17;100155.84;;;14.00;59.71
82353;BME280;71954;47.430;18.920;2024-03-22T08:46:42;100147.56;;;14.12;59.38
82353;BME280;71954;47.430;18.920;2024-03-22T08:49:08;100147.81;;;14.28;59.05
82353;BME280;71954;47.430;18.920;2024-03-22T08:51:33;100153.06;;;14.40;58.67
82353;BME280;71954;47.430;18.920;2024-03-22T08:53:59;100154.00;;;14.48;58.81
82353;BME280;71954;47.430;18.920;2024-03-22T08:56:26;100151.91;;;14.52;58.61
82353;BME280;71954;47.430;18.920;2024-03-22T08:58:52;100148.78;;;14.56;58.69
82353;BME280;71954;47.430;18.920;2024-03-22T09:01:18;100152.72;;;14.62;58.47
82353;BME280;71954;47.430;18.920;2024-03-22T09:03:43;100153.00;;;14.59;57.88
82353;BME280;71954;47.430;18.920;2024-03-22T09:06:12;100156.50;;;14.59;58.34
82353;BME280;71954;47.430;18.920;2024-03-22T09:08:38;100150.19;;;14.60;57.95
82353;BME280;71954;47.430;18.920;2024-03-22T09:11:04;100147.50;;;14.60;57.71
82353;BME280;71954;47.430;18.920;2024-03-22T09:13:30;100148.50;;;14.59;57.78
82353;BME280;71954;47.430;18.920;2024-03-22T09:15:59;100144.16;;;14.58;57.68
82353;BME280;71954;47.430;18.920;2024-03-22T09:18:25;100145.16;;;14.57;58.21
82353;BME280;71954;47.430;18.920;2024-03-22T09:20:54;100139.06;;;14.65;58.02
82353;BME280;71954;47.430;18.920;2024-03-22T09:23:20;100135.13;;;14.69;57.83
82353;BME280;71954;47.430;18.920;2024-03-22T09:25:46;100138.19;;;14.74;57.93
82353;BME280;71954;47.430;18.920;2024-03-22T09:28:13;100130.56;;;14.79;57.28
82353;BME280;71954;47.430;18.920;2024-03-22T09:30:39;100130.97;;;14.84;57.92
82353;BME280;71954;47.430;18.920;2024-03-22T09:33:08;100127.44;;;14.93;57.78
82353;BME280;71954;47.430;18.920;2024-03-22T09:35:35;100118.97;;;14.98;57.62
82353;BME280;71954;47.430;18.920;2024-03-22T09:38:01;100115.69;;;15.04;57.74
82353;BME280;71954;47.430;18.920;2024-03-22T09:40:28;100112.13;;;15.13;56.86
82353;BME280;71954;47.430;18.920;2024-03-22T09:42:54;100113.47;;;15.27;56.82
82353;BME280;71954;47.430;18.920;2024-03-22T09:45:22;100116.09;;;15.36;56.30
82353;BME280;71954;47.430;18.920;2024-03-22T09:47:50;100111.97;;;15.42;56.36
82353;BME280;71954;47.430;18.920;2024-03-22T09:50:16;100115.88;;;15.47;56.46
82353;BME280;71954;47.430;18.920;2024-03-22T09:52:42;100114.72;;;15.50;55.78
82353;BME280;71954;47.430;18.920;2024-03-22T09:55:09;100110.19;;;15.60;55.67
82353;BME280;71954;47.430;18.920;2024-03-22T09:57:38;100112.53;;;15.63;55.25
82353;BME280;71954;47.430;18.920;2024-03-22T10:00:06;100113.84;;;15.59;54.92
82353;BME280;71954;47.430;18.920;2024-03-22T10:02:33;100110.00;;;15.62;55.46
82353;BME280;71954;47.430;18.920;2024-03-22T10:04:59;100107.03;;;15.65;55.72
82353;BME280;71954;47.430;18.920;2024-03-22T10:07:25;100095.59;;;15.72;55.29
82353;BME280;71954;47.430;18.920;2024-03-22T10:09:58;100100.38;;;15.86;54.59
82353;BME280;71954;47.430;18.920;2024-03-22T10:12:23;100101.28;;;15.95;54.35
82353;BME280;71954;47.430;18.920;2024-03-22T10:14:52;100097.38;;;16.07;54.22
82353;BME280;71954;47.430;18.920;2024-03-22T10:17:18;100091.53;;;16.12;53.79
82353;BME280;71954;47.430;18.920;2024-03-22T10:19:44;100094.22;;;16.12;53.51
82353;BME280;71954;47.430;18.920;2024-03-22T10:22:09;100087.56;;;16.16;53.86
82353;BME280;71954;47.430;18.920;2024-03-22T10:24:35;100094.13;;;16.21;54.28
82353;BME280;71954;47.430;18.920;2024-03-22T10:27:01;100084.00;;;16.33;53.37
82353;BME280;71954;47.430;18.920;2024-03-22T10:29:27;100089.25;;;16.43;52.44
82353;BME280;71954;47.430;18.920;2024-03-22T10:31:54;100091.81;;;16.52;51.97
82353;BME280;71954;47.430;18.920;2024-03-22T10:34:21;100087.53;;;16.59;51.16
82353;BME280;71954;47.430;18.920;2024-03-22T10:36:47;100088.22;;;16.61;51.03
82353;BME280;71954;47.430;18.920;2024-03-22T10:39:16;100087.59;;;16.67;51.25
82353;BME280;71954;47.430;18.920;2024-03-22T10:41:47;100084.28;;;16.74;51.10
82353;BME280;71954;47.430;18.920;2024-03-22T10:44:16;100083.63;;;16.80;51.31
82353;BME280;71954;47.430;18.920;2024-03-22T10:46:47;100089.50;;;16.83;50.35
82353;BME280;71954;47.430;18.920;2024-03-22T10:49:17;100081.66;;;16.90;50.92
82353;BME280;71954;47.430;18.920;2024-03-22T10:51:50;100083.69;;;16.96;50.99
82353;BME280;71954;47.430;18.920;2024-03-22T10:54:19;100081.84;;;16.96;50.21
82353;BME280;71954;47.430;18.920;2024-03-22T10:56:47;100072.66;;;16.99;50.40
82353;BME280;71954;47.430;18.920;2024-03-22T10:59:21;100069.97;;;17.07;50.24
82353;BME280;71954;47.430;18.920;2024-03-22T11:01:48;100070.03;;;17.15;49.85
82353;BME280;71954;47.430;18.920;2024-03-22T11:04:17;100068.38;;;17.22;50.00
82353;BME280;71954;47.430;18.920;2024-03-22T11:06:50;100064.34;;;17.26;49.13
82353;BME280;71954;47.430;18.920;2024-03-22T11:09:25;100067.38;;;17.31;49.41
82353;BME280;71954;47.430;18.920;2024-03-22T11:11:55;100066.06;;;17.35;47.67
82353;BME280;71954;47.430;18.920;2024-03-22T11:14:26;100064.69;;;17.31;44.13
82353;BME280;71954;47.430;18.920;2024-03-22T11:16:52;100053.47;;;17.28;42.87
82353;BME280;71954;47.430;18.920;2024-03-22T11:19:20;100060.31;;;17.30;42.48
82353;BME280;71954;47.430;18.920;2024-03-22T11:21:46;100047.94;;;17.29;42.57
82353;BME280;71954;47.430;18.920;2024-03-22T11:24:12;100056.31;;;17.34;40.47
82353;BME280;71954;47.430;18.920;2024-03-22T11:26:38;100045.59;;;17.34;37.36
82353;BME280;71954;47.430;18.920;2024-03-22T11:29:03;100042.22;;;17.32;37.92
82353;BME280;71954;47.430;18.920;2024-03-22T11:31:29;100039.19;;;17.27;37.08
82353;BME280;71954;47.430;18.920;2024-03-22T11:33:56;100040.69;;;17.22;37.40
82353;BME280;71954;47.430;18.920;2024-03-22T11:36:22;100046.91;;;17.22;38.15
82353;BME280;71954;47.430;18.920;2024-03-22T11:38:48;100039.50;;;17.24;39.13
82353;BME280;71954;47.430;18.920;2024-03-22T11:41:24;100033.34;;;17.24;39.88
82353;BME280;71954;47.430;18.920;2024-03-22T11:43:51;100031.47;;;17.24;40.34
82353;BME280;71954;47.430;18.920;2024-03-22T11:46:18;100046.06;;;17.22;41.00
82353;BME280;71954;47.430;18.920;2024-03-22T11:48:43;100032.31;;;17.17;41.69
82353;BME280;71954;47.430;18.920;2024-03-22T11:51:09;100021.72;;;17.07;42.36
82353;BME280;71954;47.430;18.920;2024-03-22T11:53:36;100021.06;;;17.13;42.88
82353;BME280;71954;47.430;18.920;2024-03-22T11:56:03;100023.06;;;17.19;42.74
82353;BME280;71954;47.430;18.920;2024-03-22T11:58:30;100022.41;;;17.25;43.92
82353;BME280;71954;47.430;18.920;2024-03-22T12:00:56;100029.81;;;17.31;44.08
82353;BME280;71954;47.430;18.920;2024-03-22T12:03:23;100028.47;;;17.27;44.60
82353;BME280;71954;47.430;18.920;2024-03-22T12:05:48;100020.25;;;17.29;44.73
82353;BME280;71954;47.430;18.920;2024-03-22T12:08:17;100020.75;;;17.32;44.65
82353;BME280;71954;47.430;18.920;2024-03-22T12:10:43;100018.59;;;17.36;43.08
82353;BME280;71954;47.430;18.920;2024-03-22T12:13:09;100010.22;;;17.39;43.48
82353;BME280;71954;47.430;18.920;2024-03-22T12:15:35;100010.03;;;17.32;43.30
82353;BME280;71954;47.430;18.920;2024-03-22T12:18:02;100004.47;;;17.26;44.26
82353;BME280;71954;47.430;18.920;2024-03-22T12:20:28;99992.91;;;17.25;43.59
82353;BME280;71954;47.430;18.920;2024-03-22T12:22:55;99996.59;;;17.24;44.08
82353;BME280;71954;47.430;18.920;2024-03-22T12:25:20;99995.78;;;17.24;45.30
82353;BME280;71954;47.430;18.920;2024-03-22T12:27:46;99997.63;;;17.23;45.27
82353;BME280;71954;47.430;18.920;2024-03-22T12:30:12;99997.09;;;17.20;44.35
82353;BME280;71954;47.430;18.920;2024-03-22T12:32:38;99993.38;;;17.13;44.49
82353;BME280;71954;47.430;18.920;2024-03-22T12:35:04;99992.22;;;17.07;44.53
82353;BME280;71954;47.430;18.920;2024-03-22T12:37:30;99990.56;;;17.14;44.44